Time;durP1;ratioP1;P1;durP2;ratioP2;P2;SDS_P1;SDS_P2;PMS_P1;PMS_P2;Temp;Humidity;BMP_temperature;BMP_pressure;BME280_temperature;BME280_humidity;BME280_pressure;Samples;Min_cycle;Max_cycle;Signal;HPM_P1;HPM_P2
2022/05/27 00:00:24;;;;;;;;;1.50;1.50;;;;;18.44;50.45;101987.53;5030758;28;45451;-80
2022/05/27 00:02:50;;;;;;;;;3.75;3.00;;;;;18.47;50.72;101987.28;5033239;28;45332;-79
2022/05/27 00:05:17;;;;;;;;;3.00;3.00;;;;;18.44;51.01;101982.13;5031237;28;45411;-79
2022/05/27 00:07:43;;;;;;;;;2.00;2.00;;;;;18.45;51.04;101975.78;5032999;28;48801;-80
2022/05/27 00:10:11;;;;;;;;;9.75;8.25;;;;;18.47;50.93;101976.50;5030339;28;45638;-81
2022/05/27 00:12:36;;;;;;;;;14.50;10.50;;;;;18.41;51.23;101969.72;5015614;28;45410;-78
2022/05/27 00:15:03;;;;;;;;;5.75;5.75;;;;;18.40;51.37;101981.50;5033949;28;45599;-77
2022/05/27 00:17:28;;;;;;;;;4.25;4.25;;;;;18.40;51.43;101973.41;5030923;28;46339;-77
2022/05/27 00:19:53;;;;;;;;;6.00;4.00;;;;;18.42;51.82;101981.38;5029675;28;45308;-78
2022/05/27 00:22:19;;;;;;;;;4.00;4.00;;;;;18.37;51.70;101976.28;5032120;28;45586;-78
2022/05/27 00:24:44;;;;;;;;;4.00;3.25;;;;;18.38;51.74;101969.94;5032718;28;45589;-80
2022/05/27 00:27:09;;;;;;;;;4.25;4.25;;;;;18.37;51.86;101970.03;5030353;28;45474;-80
2022/05/27 00:29:35;;;;;;;;;1.50;1.00;;;;;18.35;51.74;101966.59;5032180;28;45412;-80
2022/05/27 00:32:03;;;;;;;;;5.25;3.00;;;;;18.35;52.22;101967.47;5031758;28;45653;-81
2022/05/27 00:34:28;;;;;;;;;1.75;1.75;;;;;18.28;52.07;101955.38;5031270;28;45522;-81
2022/05/27 00:36:53;;;;;;;;;4.75;3.25;;;;;18.32;52.30;101959.56;5028412;28;46336;-80
2022/05/27 00:39:19;;;;;;;;;10.00;10.00;;;;;18.31;52.44;101950.63;5030039;28;45396;-81
2022/05/27 00:41:44;;;;;;;;;12.00;11.00;;;;;18.34;52.31;101949.56;5031051;28;45388;-80
2022/05/27 00:44:10;;;;;;;;;7.25;7.25;;;;;18.30;52.60;101948.03;5032559;28;45627;-79
2022/05/27 00:46:39;;;;;;;;;7.00;6.75;;;;;18.33;52.50;101938.88;5033229;28;45453;-79
2022/05/27 00:49:23;;;;;;;;;4.25;3.00;;;;;18.29;52.23;101933.69;5011664;28;45309;-78
2022/05/27 00:52:03;;;;;;;;;5.75;4.00;;;;;18.31;52.45;101934.47;5030601;28;45571;-79
2022/05/27 00:54:28;;;;;;;;;2.25;2.25;;;;;18.36;52.41;101931.44;5030199;28;45281;-79
2022/05/27 00:56:58;;;;;;;;;4.75;4.75;;;;;18.36;52.56;101944.91;5027551;28;45321;-79
2022/05/27 00:59:49;;;;;;;;;2.75;2.00;;;;;18.39;52.36;101949.22;5033151;28;45409;-79
2022/05/27 01:02:15;;;;;;;;;4.50;4.50;;;;;18.36;52.38;101936.84;5035608;28;45475;-79
2022/05/27 01:04:40;;;;;;;;;13.50;8.75;;;;;18.31;52.25;101944.38;5018498;28;45525;-78
2022/05/27 01:07:06;;;;;;;;;5.25;5.25;;;;;18.26;52.36;101943.84;5034882;28;46172;-79
2022/05/27 01:09:35;;;;;;;;;5.50;5.25;;;;;18.19;52.69;101943.41;5036362;28;45809;-79
2022/05/27 01:12:16;;;;;;;;;11.25;9.25;;;;;18.21;52.88;101943.31;5026471;28;45521;-79
2022/05/27 01:15:03;;;;;;;;;5.00;5.00;;;;;18.18;52.98;101938.97;5036115;28;45454;-78
2022/05/27 01:17:53;;;;;;;;;1.00;1.00;;;;;18.19;52.80;101939.84;5033785;28;45450;-79
2022/05/27 01:20:38;;;;;;;;;1.00;1.00;;;;;18.17;53.08;101937.25;5034163;28;45472;-79
2022/05/27 01:23:40;;;;;;;;;5.00;3.75;;;;;18.19;53.11;101940.69;5035144;28;45533;-78
2022/05/27 01:26:26;;;;;;;;;6.50;6.50;;;;;18.17;53.19;101934.56;5035568;28;45603;-79
2022/05/27 01:28:57;;;;;;;;;11.00;10.50;;;;;18.18;53.17;101949.72;5031356;28;47475;-79
2022/05/27 01:31:43;;;;;;;;;19.25;17.75;;;;;18.15;53.31;101938.31;5035319;28;45321;-77
2022/05/27 01:34:15;;;;;;;;;6.25;5.75;;;;;18.12;53.49;101934.00;5033938;28;45298;-79
2022/05/27 01:37:08;;;;;;;;;2.00;2.00;;;;;18.18;53.26;101947.03;5031721;28;45689;-78
2022/05/27 01:39:39;;;;;;;;;0.75;0.75;;;;;18.14;53.57;101932.06;5034528;28;46671;-79
2022/05/27 01:42:39;;;;;;;;;0.75;0.75;;;;;18.15;53.50;101928.41;5033681;28;45362;-79
2022/05/27 01:45:39;;;;;;;;;0.25;0.25;;;;;18.14;53.54;101928.53;5032718;28;45430;-79
2022/05/27 01:48:14;;;;;;;;;2.00;2.00;;;;;18.05;53.76;101920.09;5012676;28;45506;-79
2022/05/27 01:50:55;;;;;;;;;2.25;1.00;;;;;18.05;53.81;101927.31;5033148;28;45470;-79
2022/05/27 01:53:52;;;;;;;;;1.00;1.00;;;;;18.05;54.11;101935.41;5035471;28;45370;-80
2022/05/27 01:56:48;;;;;;;;;2.25;2.00;;;;;17.97;54.25;101916.22;5028829;28;45534;-79
2022/05/27 01:59:21;;;;;;;;;2.00;2.00;;;;;17.99;54.59;101923.22;5031255;28;45609;-81
2022/05/27 02:01:54;;;;;;;;;1.00;1.00;;;;;18.00;54.49;101932.16;5015638;28;48268;-79
2022/05/27 02:04:28;;;;;;;;;2.00;1.00;;;;;17.90;54.58;101928.38;5031930;28;45385;-79
2022/05/27 02:07:00;;;;;;;;;1.25;1.25;;;;;17.89;54.63;101927.47;5033165;28;45536;-79
2022/05/27 02:09:40;;;;;;;;;0.50;0.50;;;;;17.91;54.84;101938.16;5032564;28;45405;-81
2022/05/27 02:12:12;;;;;;;;;2.00;0.75;;;;;17.90;54.88;101925.69;5033271;28;46519;-81
2022/05/27 02:14:54;;;;;;;;;1.75;1.00;;;;;17.85;54.78;101936.75;5034784;28;45474;-81
2022/05/27 02:17:52;;;;;;;;;1.50;1.50;;;;;17.85;54.93;101928.69;5033266;28;45297;-79
2022/05/27 02:20:24;;;;;;;;;0.75;0.75;;;;;17.83;54.91;101942.25;4954817;28;45445;-79
2022/05/27 02:22:55;;;;;;;;;1.00;1.00;;;;;17.78;54.84;101933.59;4953860;28;46151;-79
2022/05/27 02:25:31;;;;;;;;;2.25;1.00;;;;;17.72;54.87;101923.22;4950080;28;48984;-79
2022/05/27 02:28:15;;;;;;;;;1.00;1.00;;;;;17.79;54.91;101931.75;4953814;28;45523;-80
2022/05/27 02:30:45;;;;;;;;;1.00;1.00;;;;;17.76;54.39;101931.97;4952133;28;45595;-80
2022/05/27 02:36:05;;;;;;;;;2.75;1.00;;;;;17.65;54.36;101925.47;4953661;28;45513;-80
2022/05/27 02:38:31;;;;;;;;;1.75;1.75;;;;;17.68;54.68;101927.94;4954695;28;45442;-80
2022/05/27 02:41:18;;;;;;;;;1.75;1.00;;;;;17.71;54.75;101926.03;4953609;28;45573;-80
2022/05/27 02:44:18;;;;;;;;;1.75;1.75;;;;;17.70;54.70;101932.34;4953667;28;46310;-79
2022/05/27 02:47:11;;;;;;;;;2.00;2.00;;;;;17.67;54.70;101934.28;4935366;28;45528;-79
2022/05/27 02:49:59;;;;;;;;;1.00;1.00;;;;;17.61;54.75;101923.09;4953315;28;45580;-78
2022/05/27 02:52:36;;;;;;;;;1.25;1.00;;;;;17.59;55.12;101941.16;4950660;28;45468;-79
2022/05/27 02:55:18;;;;;;;;;4.00;1.75;;;;;17.56;54.79;101930.59;4954558;28;47341;-79
2022/05/27 02:57:46;;;;;;;;;2.50;2.00;;;;;17.52;54.68;101927.25;5015731;28;45483;-79
2022/05/27 03:00:20;;;;;;;;;2.50;1.50;;;;;17.50;54.88;101939.94;5014582;28;45889;-78
2022/05/27 03:02:47;;;;;;;;;4.00;1.50;;;;;17.46;55.01;101920.44;5032058;28;45463;-79
2022/05/27 03:05:15;;;;;;;;;2.50;2.50;;;;;17.49;55.19;101921.22;5033685;28;46267;-79
2022/05/27 03:08:02;;;;;;;;;2.00;2.00;;;;;17.52;54.83;101931.78;5031526;28;45475;-79
2022/05/27 03:10:52;;;;;;;;;1.25;1.25;;;;;17.53;54.78;101933.47;5026914;28;45492;-79
2022/05/27 03:13:36;;;;;;;;;3.50;2.00;;;;;17.51;54.77;101933.59;5011472;28;45460;-79
2022/05/27 03:16:04;;;;;;;;;6.00;6.00;;;;;17.51;55.06;101925.53;5034046;28;45727;-79
2022/05/27 03:18:40;;;;;;;;;2.00;2.00;;;;;17.52;54.83;101929.06;5015242;28;45874;-78
2022/05/27 03:21:08;;;;;;;;;3.25;3.25;;;;;17.52;54.88;101931.78;5032085;28;45389;-79
2022/05/27 03:23:45;;;;;;;;;2.75;1.50;;;;;17.52;54.92;101929.06;5032406;28;45378;-79
2022/05/27 03:26:39;;;;;;;;;3.00;1.25;;;;;17.49;55.12;101938.22;5030614;28;47715;-79
2022/05/27 03:29:36;;;;;;;;;3.25;1.75;;;;;17.48;55.37;101936.47;5011819;28;45463;-79
2022/05/27 03:32:29;;;;;;;;;4.00;3.00;;;;;17.49;55.50;101934.69;5030299;28;45384;-80
2022/05/27 03:35:07;;;;;;;;;1.75;1.75;;;;;17.40;55.77;101934.31;5034673;28;45506;-81
2022/05/27 03:38:17;;;;;;;;;4.75;2.25;;;;;17.42;55.94;101929.69;5032490;28;45534;-80
2022/05/27 03:40:52;;;;;;;;;1.75;1.75;;;;;17.42;56.02;101918.06;5013728;28;45986;-79
2022/05/27 03:43:20;;;;;;;;;0.00;0.00;;;;;17.35;56.21;101917.59;5010832;28;45587;-81
2022/05/27 03:45:55;;;;;;;;;2.00;2.00;;;;;17.35;56.04;101922.97;5033972;28;45452;-80
2022/05/27 03:48:22;;;;;;;;;2.00;2.00;;;;;17.34;56.42;101925.75;5013388;28;46889;-81
2022/05/27 03:50:52;;;;;;;;;3.00;3.00;;;;;17.40;56.22;101933.44;5016043;28;45480;-80
2022/05/27 03:53:17;;;;;;;;;2.50;2.50;;;;;17.39;55.99;101937.97;5031233;28;45545;-80
2022/05/27 03:55:44;;;;;;;;;3.00;3.00;;;;;17.36;56.12;101935.47;5034222;28;48135;-80
2022/05/27 03:58:15;;;;;;;;;4.25;3.00;;;;;17.39;56.17;101937.09;5034335;28;46002;-80
2022/05/27 04:00:42;;;;;;;;;4.00;3.00;;;;;17.37;56.34;101939.91;5033909;28;45595;-80
2022/05/27 04:03:09;;;;;;;;;4.75;3.75;;;;;17.34;56.28;101931.13;5034484;28;45691;-80
2022/05/27 04:05:36;;;;;;;;;6.25;5.00;;;;;17.34;56.42;101934.72;5013610;28;45529;-80
2022/05/27 04:08:01;;;;;;;;;6.50;3.00;;;;;17.35;56.53;101932.88;5034757;28;46534;-80
2022/05/27 04:10:26;;;;;;;;;10.00;6.50;;;;;17.32;56.05;101922.28;5034755;28;45522;-80
2022/05/27 04:12:52;;;;;;;;;5.00;4.50;;;;;17.35;56.06;101931.06;5034759;28;48854;-80
2022/05/27 04:15:17;;;;;;;;;8.25;6.25;;;;;17.35;56.12;101935.56;5034953;28;45527;-80
2022/05/27 04:17:43;;;;;;;;;10.75;10.00;;;;;17.31;56.11;101934.03;5035155;28;46663;-79
2022/05/27 04:20:12;;;;;;;;;5.00;5.00;;;;;17.23;56.23;101940.78;5034307;28;45353;-80
2022/05/27 04:22:39;;;;;;;;;7.25;7.25;;;;;17.36;56.05;101940.84;5034789;28;45584;-80
2022/05/27 04:25:05;;;;;;;;;9.00;7.75;;;;;17.33;56.08;101943.75;5034661;28;45458;-79
2022/05/27 04:27:31;;;;;;;;;7.25;7.25;;;;;17.32;56.42;101944.72;5034377;28;46131;-79
2022/05/27 04:29:56;;;;;;;;;11.75;8.50;;;;;17.33;56.17;101948.28;5034350;28;45441;-80
2022/05/27 04:32:22;;;;;;;;;8.50;8.00;;;;;17.33;56.41;101959.88;5035320;28;45412;-80
2022/05/27 04:34:51;;;;;;;;;8.50;8.50;;;;;17.30;56.33;101953.84;5024958;28;45544;-80
2022/05/27 04:37:16;;;;;;;;;11.25;9.00;;;;;17.31;56.38;101959.13;5022427;28;45719;-80
2022/05/27 04:39:42;;;;;;;;;10.00;10.00;;;;;17.30;56.38;101952.03;5023478;28;45541;-80
2022/05/27 04:42:09;;;;;;;;;8.25;6.00;;;;;17.35;56.61;101954.41;5019120;28;45300;-79
2022/05/27 04:44:34;;;;;;;;;8.75;6.75;;;;;17.35;56.74;101947.19;5019461;28;45438;-79
2022/05/27 04:47:00;;;;;;;;;6.00;6.00;;;;;17.32;56.58;101938.44;5022979;28;45587;-79
2022/05/27 04:52:09;;;;;;;;;9.75;8.50;;;;;17.37;56.65;101947.13;5023041;28;45359;-80
2022/05/27 04:54:35;;;;;;;;;7.50;7.50;;;;;17.40;56.52;101954.97;5004786;28;45349;-80
2022/05/27 04:57:00;;;;;;;;;5.25;3.75;;;;;17.37;56.42;101956.03;5018280;28;45978;-80
2022/05/27 04:59:26;;;;;;;;;5.00;5.00;;;;;17.38;56.58;101944.28;5002533;28;45346;-80
2022/05/27 05:01:51;;;;;;;;;8.00;6.75;;;;;17.38;56.64;101949.69;5023082;28;46004;-80
2022/05/27 05:04:16;;;;;;;;;7.50;7.50;;;;;17.35;56.92;101957.09;5023219;28;45400;-80
2022/05/27 05:06:43;;;;;;;;;9.00;9.00;;;;;17.33;56.72;101948.28;5022958;28;47380;-80
2022/05/27 05:09:09;;;;;;;;;7.00;6.50;;;;;17.34;57.14;101947.28;5001011;28;45507;-79
2022/05/27 05:11:35;;;;;;;;;7.75;7.50;;;;;17.37;56.86;101953.34;5019240;28;45378;-80
2022/05/27 05:14:00;;;;;;;;;8.50;7.25;;;;;17.35;57.01;101951.72;5022718;28;45659;-79
2022/05/27 05:16:26;;;;;;;;;10.00;8.50;;;;;17.29;57.00;101944.03;5022648;28;46956;-80
2022/05/27 05:18:52;;;;;;;;;6.50;6.50;;;;;17.31;57.48;101960.97;5022917;28;45444;-79
2022/05/27 05:21:17;;;;;;;;;9.25;8.75;;;;;17.31;57.33;101971.72;5002138;28;45420;-79
2022/05/27 05:23:43;;;;;;;;;8.75;8.00;;;;;17.28;57.42;101963.84;5018332;28;45441;-81
2022/05/27 05:26:09;;;;;;;;;7.25;7.25;;;;;17.27;57.47;101968.38;5021068;28;46283;-80
2022/05/27 05:28:34;;;;;;;;;9.00;9.00;;;;;17.19;57.43;101955.41;5006736;28;45361;-80
2022/05/27 05:30:59;;;;;;;;;9.00;6.75;;;;;17.23;57.81;101956.94;5023946;28;45954;-81
2022/05/27 05:33:25;;;;;;;;;10.75;9.75;;;;;17.19;58.04;101957.22;5015693;28;46860;-80
2022/05/27 05:35:50;;;;;;;;;10.50;10.25;;;;;17.22;57.76;101952.53;5017947;28;46399;-80
2022/05/27 05:38:17;;;;;;;;;10.50;9.00;;;;;17.22;57.88;101948.94;5021066;28;45333;-81
2022/05/27 05:40:43;;;;;;;;;6.25;6.25;;;;;17.20;57.81;101950.91;5022716;28;45475;-79
2022/05/27 05:43:08;;;;;;;;;10.50;8.25;;;;;17.22;58.23;101954.34;5022584;28;45459;-83
2022/05/27 05:45:34;;;;;;;;;6.50;6.50;;;;;17.23;58.09;101956.06;5022783;28;46072;-83
2022/05/27 05:48:00;;;;;;;;;7.00;6.25;;;;;17.19;58.21;101950.00;5021192;28;45377;-83
2022/05/27 05:50:25;;;;;;;;;11.75;8.25;;;;;17.20;58.23;101949.06;5023426;28;45476;-82
2022/05/27 05:52:51;;;;;;;;;8.25;6.25;;;;;17.18;58.09;101959.06;5008124;28;45476;-82
2022/05/27 05:55:18;;;;;;;;;8.00;8.00;;;;;17.20;58.24;101957.13;5025622;28;45484;-82
2022/05/27 05:57:45;;;;;;;;;7.25;7.25;;;;;17.21;58.35;101964.25;5007825;28;45409;-83
2022/05/27 06:00:14;;;;;;;;;8.50;7.75;;;;;17.17;58.68;101956.47;5021265;28;45459;-82
2022/05/27 06:02:39;;;;;;;;;6.25;6.25;;;;;17.14;58.67;101944.06;5015901;28;45629;-80
2022/05/27 06:05:05;;;;;;;;;10.75;9.75;;;;;17.21;58.58;101958.00;5025263;28;46333;-81
2022/05/27 06:07:32;;;;;;;;;18.25;16.50;;;;;17.20;58.71;101950.91;5025688;28;45435;-81
2022/05/27 06:09:58;;;;;;;;;19.00;17.00;;;;;17.20;58.72;101953.59;5025630;28;45527;-81
2022/05/27 06:12:24;;;;;;;;;14.25;12.75;;;;;17.23;58.75;101954.25;5005465;28;45420;-81
2022/05/27 06:14:50;;;;;;;;;12.00;9.75;;;;;17.23;58.82;101948.00;5020769;28;45583;-81
2022/05/27 06:17:16;;;;;;;;;11.25;11.25;;;;;17.24;58.75;101966.75;5033397;28;45433;-82
2022/05/27 06:19:41;;;;;;;;;16.25;14.75;;;;;17.21;58.66;101952.63;5028201;28;45278;-82
2022/05/27 06:22:07;;;;;;;;;11.50;11.25;;;;;17.27;58.82;101960.31;5007473;28;45478;-82
2022/05/27 06:24:33;;;;;;;;;9.25;9.25;;;;;17.28;58.79;101961.16;5006447;28;47393;-81
2022/05/27 06:26:59;;;;;;;;;12.50;10.25;;;;;17.24;58.49;101961.38;5020099;28;45510;-82
2022/05/27 06:34:52;;;;;;;;;14.00;12.75;;;;;17.19;58.59;101959.91;5024976;28;45440;-81
2022/05/27 06:37:21;;;;;;;;;12.00;11.50;;;;;17.20;58.96;101977.81;5024825;28;46977;-82
2022/05/27 06:39:48;;;;;;;;;15.00;10.25;;;;;17.22;59.03;101973.16;5025024;28;45646;-82
2022/05/27 06:42:15;;;;;;;;;12.25;12.25;;;;;17.23;59.29;101974.91;5003585;28;45810;-82
2022/05/27 06:44:41;;;;;;;;;15.25;12.75;;;;;17.24;59.17;101972.13;5020566;28;45546;-81
2022/05/27 06:47:08;;;;;;;;;13.75;12.75;;;;;17.24;59.24;101971.25;5008924;28;45423;-81
2022/05/27 06:49:36;;;;;;;;;12.25;12.25;;;;;17.24;58.96;101966.75;5025117;28;45474;-82
2022/05/27 06:52:02;;;;;;;;;13.50;11.00;;;;;17.24;59.30;101979.31;5024356;28;45515;-82
2022/05/27 06:54:28;;;;;;;;;14.50;10.00;;;;;17.25;59.27;101975.69;5010524;28;48696;-82
2022/05/27 06:56:53;;;;;;;;;8.50;7.75;;;;;17.12;59.36;101955.91;5022080;28;45301;-82
2022/05/27 06:59:21;;;;;;;;;10.25;10.00;;;;;17.24;59.36;101973.94;5025255;28;45541;-81
2022/05/27 07:01:47;;;;;;;;;12.00;12.00;;;;;17.21;59.63;101974.16;5028684;28;45587;-81
2022/05/27 07:04:13;;;;;;;;;8.50;8.50;;;;;17.19;59.79;101965.31;5025007;28;46287;-81
2022/05/27 07:06:43;;;;;;;;;6.25;6.25;;;;;17.19;59.86;101971.53;5024739;28;45490;-81
2022/05/27 07:09:13;;;;;;;;;4.00;4.00;;;;;17.20;59.70;101980.50;5020541;28;45314;-80
2022/05/27 07:11:41;;;;;;;;;3.00;2.50;;;;;17.19;59.59;101978.75;5002513;28;45629;-81
2022/05/27 07:14:07;;;;;;;;;6.00;3.75;;;;;17.11;59.92;101979.25;5018081;28;46294;-81
2022/05/27 07:16:32;;;;;;;;;4.00;4.00;;;;;17.09;60.10;101985.69;5029670;28;45421;-81
2022/05/27 07:18:58;;;;;;;;;4.25;4.25;;;;;17.02;60.58;101975.31;5019190;28;45508;-81
2022/05/27 07:21:25;;;;;;;;;5.50;5.50;;;;;17.06;60.46;101984.06;5022533;28;45534;-83
2022/05/27 07:23:55;;;;;;;;;3.50;3.50;;;;;17.03;60.78;101985.13;5019156;28;45471;-82
2022/05/27 07:26:22;;;;;;;;;4.00;4.00;;;;;17.03;60.55;101990.50;5002555;28;45421;-81
2022/05/27 07:28:48;;;;;;;;;5.00;5.00;;;;;17.06;60.71;101984.06;5024491;28;45409;-82
2022/05/27 07:31:14;;;;;;;;;3.75;3.75;;;;;16.99;60.44;101975.50;5006252;28;45644;-82
2022/05/27 07:33:40;;;;;;;;;6.75;6.75;;;;;17.01;60.63;101970.91;5024165;28;46535;-82
2022/05/27 07:36:06;;;;;;;;;6.25;5.50;;;;;17.03;60.58;101979.75;5019670;28;45307;-81
2022/05/27 07:38:31;;;;;;;;;8.00;6.75;;;;;17.10;60.85;101991.00;5021001;28;45342;-81
2022/05/27 07:40:57;;;;;;;;;10.50;8.50;;;;;17.08;60.87;101983.94;5024026;28;47935;-82
2022/05/27 07:43:22;;;;;;;;;10.75;9.75;;;;;17.04;60.92;101978.78;5023737;28;45550;-81
2022/05/27 07:45:49;;;;;;;;;8.50;8.00;;;;;17.11;61.24;101979.25;5024054;28;45242;-81
2022/05/27 07:48:14;;;;;;;;;11.00;9.50;;;;;17.11;60.98;101978.41;5020948;28;45674;-81
2022/05/27 07:50:41;;;;;;;;;9.75;5.75;;;;;17.12;61.13;101974.72;5034254;28;45455;-82
2022/05/27 07:53:06;;;;;;;;;7.25;7.25;;;;;17.09;61.00;101981.16;5005819;28;46345;-81
2022/05/27 07:55:33;;;;;;;;;9.75;8.75;;;;;17.07;61.01;101972.34;5006036;28;45577;-82
2022/05/27 07:57:59;;;;;;;;;7.00;7.00;;;;;17.09;61.03;101967.72;5008691;28;45512;-82
2022/05/27 08:00:31;;;;;;;;;8.00;8.00;;;;;17.15;60.77;101978.09;5035329;28;45452;-82
2022/05/27 08:02:57;;;;;;;;;6.25;6.25;;;;;17.15;60.69;101969.16;5019333;28;47720;-82
2022/05/27 08:05:27;;;;;;;;;9.50;6.50;;;;;17.19;60.98;101976.94;5022433;28;45408;-82
2022/05/27 08:07:57;;;;;;;;;9.25;7.00;;;;;17.29;60.90;101979.03;5024472;28;45331;-82
2022/05/27 08:10:26;;;;;;;;;7.00;7.00;;;;;17.30;60.74;101980.78;5023525;28;45609;-82
2022/05/27 08:12:52;;;;;;;;;8.50;8.50;;;;;17.34;60.48;101985.88;5023600;28;45502;-82
2022/05/27 08:15:17;;;;;;;;;7.00;7.00;;;;;17.35;60.53;101984.88;5020477;28;45467;-82
2022/05/27 08:17:43;;;;;;;;;8.00;8.00;;;;;17.38;60.61;101981.13;5001542;28;45443;-80
2022/05/27 08:20:11;;;;;;;;;7.00;5.25;;;;;17.45;60.17;101983.31;5005581;28;45605;-81
2022/05/27 08:22:37;;;;;;;;;8.75;6.75;;;;;17.52;60.29;101991.88;5023491;28;45440;-81
2022/05/27 08:25:03;;;;;;;;;8.75;7.50;;;;;17.58;59.99;101993.28;5023167;28;45523;-80
2022/05/27 08:27:29;;;;;;;;;7.00;7.00;;;;;17.59;60.09;101977.03;5022314;28;45308;-81
2022/05/27 08:29:54;;;;;;;;;6.50;6.50;;;;;17.63;59.90;101978.56;5018702;28;45425;-81
2022/05/27 08:32:20;;;;;;;;;10.25;6.75;;;;;17.66;60.08;101985.59;5021392;28;45991;-81
2022/05/27 08:40:30;;;;;;;;;10.50;8.75;;;;;17.77;59.47;101985.72;5023082;28;45336;-81
2022/05/27 08:43:10;;;;;;;;;15.50;10.75;;;;;17.78;59.29;101979.38;5023218;28;46292;-80
2022/05/27 08:45:49;;;;;;;;;7.50;7.50;;;;;17.80;59.35;101982.88;5004885;28;45566;-80
2022/05/27 08:48:16;;;;;;;;;8.25;7.00;;;;;17.78;59.43;101971.28;5020015;28;45651;-81
2022/05/27 08:50:50;;;;;;;;;8.25;8.25;;;;;17.84;59.32;101984.38;5018414;28;45531;-81
2022/05/27 08:53:34;;;;;;;;;7.50;6.25;;;;;17.87;59.28;101986.88;5016805;28;48440;-82
2022/05/27 09:01:41;;;;;;;;;6.00;6.00;;;;;17.90;59.14;101975.03;5022943;28;46002;-80
2022/05/27 09:04:33;;;;;;;;;10.25;7.00;;;;;17.95;59.62;101977.41;5008907;28;46748;-81
2022/05/27 09:07:13;;;;;;;;;5.50;5.50;;;;;18.00;59.57;101978.81;5017408;28;45465;-81
2022/05/27 09:09:38;;;;;;;;;5.75;5.75;;;;;18.02;59.59;101979.59;5022847;28;45522;-81
2022/05/27 09:12:20;;;;;;;;;10.25;9.25;;;;;18.06;59.49;101985.63;5022769;28;45473;-81
2022/05/27 09:14:55;;;;;;;;;6.00;5.75;;;;;18.07;59.67;101981.97;5031605;28;45889;-81
2022/05/27 09:17:35;;;;;;;;;7.25;5.75;;;;;18.05;59.79;101995.53;5019143;28;45424;-81
2022/05/27 09:20:31;;;;;;;;;6.50;6.50;;;;;18.04;59.77;101980.34;5022743;28;45372;-80
2022/05/27 09:23:27;;;;;;;;;5.50;5.00;;;;;18.14;59.28;101993.22;5008484;28;45616;-80
2022/05/27 09:26:18;;;;;;;;;6.75;6.75;;;;;18.13;59.44;101988.75;5008125;28;46476;-82
2022/05/27 09:29:28;;;;;;;;;6.75;5.50;;;;;18.13;60.00;101988.75;5026181;28;45318;-81
2022/05/27 09:32:02;;;;;;;;;5.25;5.25;;;;;18.14;59.87;101991.38;5025814;28;45368;-81
2022/05/27 09:34:31;;;;;;;;;6.25;5.25;;;;;18.15;59.67;101979.59;5025251;28;45609;-81
2022/05/27 09:37:00;;;;;;;;;6.00;6.00;;;;;18.17;59.73;101987.59;5025538;28;45448;-81
2022/05/27 09:39:25;;;;;;;;;3.75;3.75;;;;;18.14;60.48;101980.59;5022827;28;45361;-84
2022/05/27 09:42:02;;;;;;;;;8.00;5.50;;;;;18.21;60.11;101981.03;5020866;28;45334;-83
2022/05/27 09:44:39;;;;;;;;;7.25;5.00;;;;;18.23;60.34;101989.84;5021949;28;45312;-85
2022/05/27 09:47:05;;;;;;;;;3.50;3.50;;;;;18.24;60.46;101987.06;5024712;28;46710;-84
2022/05/27 09:49:31;;;;;;;;;5.00;4.75;;;;;18.26;60.83;101987.81;5026575;28;45679;-85
2022/05/27 09:51:57;;;;;;;;;6.75;5.75;;;;;18.29;60.44;101978.66;5029001;28;45536;-85
2022/05/27 09:54:37;;;;;;;;;5.00;4.00;;;;;18.35;60.26;101982.75;5032504;28;45594;-85
2022/05/27 09:57:11;;;;;;;;;5.75;5.00;;;;;18.38;60.19;101983.44;5027967;28;45355;-87
2022/05/27 09:59:43;;;;;;;;;4.25;4.00;;;;;18.40;60.14;101981.50;5007608;28;45788;-85
2022/05/27 10:02:15;;;;;;;;;5.00;5.00;;;;;18.42;60.39;101981.38;5035423;28;45364;-85
2022/05/27 10:04:52;;;;;;;;;5.00;4.25;;;;;18.47;60.15;101979.22;5027824;28;45407;-84
2022/05/27 10:07:40;;;;;;;;;6.00;4.75;;;;;18.46;59.92;101977.50;5026604;28;46262;-85
2022/05/27 10:10:29;;;;;;;;;3.25;2.25;;;;;18.49;59.87;101974.56;5006887;28;45496;-88
2022/05/27 10:13:12;;;;;;;;;5.00;5.00;;;;;18.47;59.96;101976.50;5025109;28;45429;-86
2022/05/27 10:15:38;;;;;;;;;3.25;3.25;;;;;18.48;59.93;101967.47;5024949;28;45314;-86
2022/05/27 10:18:19;;;;;;;;;6.00;6.00;;;;;18.51;60.11;101969.94;5020100;28;45432;-85
2022/05/27 10:21:10;;;;;;;;;5.00;3.75;;;;;18.53;59.95;101959.91;5015671;28;45366;-86
2022/05/27 10:23:38;;;;;;;;;4.75;4.75;;;;;18.53;59.85;101970.69;5028490;28;45495;-86
2022/05/27 10:26:25;;;;;;;;;4.00;4.00;;;;;18.50;59.95;101965.53;5024121;28;45520;-87
2022/05/27 10:29:15;;;;;;;;;3.50;3.25;;;;;18.52;60.19;101952.81;5024520;28;45412;-86
2022/05/27 10:31:55;;;;;;;;;3.00;3.00;;;;;18.59;60.11;101954.09;5006108;28;45497;-85
2022/05/27 10:34:46;;;;;;;;;4.75;2.50;;;;;18.58;60.06;101948.81;5024592;28;45471;-85
2022/05/27 10:37:44;;;;;;;;;6.50;3.75;;;;;18.67;60.04;101962.50;5003330;28;45341;-86
2022/05/27 10:40:34;;;;;;;;;4.75;4.50;;;;;18.70;59.88;101964.97;5024268;28;45424;-86
2022/05/27 10:43:18;;;;;;;;;4.75;4.00;;;;;18.69;59.95;101960.56;5024632;28;45440;-87
2022/05/27 10:45:49;;;;;;;;;4.75;4.50;;;;;18.70;60.10;101966.81;5024522;28;45555;-86
2022/05/27 10:48:40;;;;;;;;;4.50;3.00;;;;;18.60;59.94;101961.22;5003960;28;45496;-87
2022/05/27 10:51:14;;;;;;;;;4.00;4.00;;;;;18.66;60.08;101957.22;5020611;28;46538;-85
2022/05/27 10:54:05;;;;;;;;;4.25;2.75;;;;;18.69;60.00;101965.09;5033286;28;45527;-85
2022/05/27 10:56:42;;;;;;;;;4.25;3.25;;;;;18.76;60.37;101960.13;5021172;28;45297;-86
2022/05/27 11:02:14;;;;;;;;;4.50;3.00;;;;;18.82;59.96;101962.41;5023222;28;45856;-86
2022/05/27 11:04:43;;;;;;;;;3.75;3.75;;;;;18.85;59.97;101954.94;5006735;28;46079;-86
2022/05/27 11:07:31;;;;;;;;;3.00;3.00;;;;;18.85;60.05;101954.94;5006971;28;45365;-86
2022/05/27 11:10:11;;;;;;;;;3.00;3.00;;;;;18.95;59.77;101952.44;5024561;28;45325;-86
2022/05/27 11:16:02;;;;;;;;;3.25;3.25;;;;;19.01;59.70;101949.31;5022525;28;45539;-86
2022/05/27 11:18:43;;;;;;;;;3.75;3.25;;;;;19.07;59.59;101953.41;4964709;28;45487;-85
2022/05/27 11:21:12;;;;;;;;;3.75;3.75;;;;;19.10;59.89;101950.50;4959551;28;45492;-85
2022/05/27 11:24:09;;;;;;;;;5.25;4.00;;;;;19.11;59.54;101950.38;4973537;28;47140;-85
2022/05/27 11:27:04;;;;;;;;;4.00;3.00;;;;;19.15;59.63;101949.19;4954838;28;45444;-86
2022/05/27 11:29:59;;;;;;;;;3.75;3.75;;;;;19.20;59.29;101939.91;4948974;28;45385;-85
2022/05/27 11:32:59;;;;;;;;;5.75;4.75;;;;;19.25;59.11;101948.53;4978765;28;45464;-85
2022/05/27 11:35:46;;;;;;;;;3.25;3.25;;;;;19.30;58.81;101952.59;4882083;29;48304;-85
2022/05/27 11:38:26;;;;;;;;;5.75;3.00;;;;;19.33;58.94;101943.41;4896790;28;45490;-85
2022/05/27 11:41:06;;;;;;;;;6.00;6.00;;;;;19.36;58.61;101944.06;4895855;29;45571;-85
2022/05/27 11:43:52;;;;;;;;;6.00;5.00;;;;;19.44;58.57;101934.53;4894796;29;45709;-84
2022/05/27 11:46:55;;;;;;;;;3.75;3.75;;;;;19.44;58.23;101934.53;4878006;29;48394;-84
2022/05/27 11:50:06;;;;;;;;;5.25;4.00;;;;;19.46;58.29;101937.94;4901478;28;45508;-85
2022/05/27 11:52:49;;;;;;;;;4.25;4.25;;;;;19.50;58.26;101929.50;4893990;29;45562;-85
2022/05/27 11:55:44;;;;;;;;;4.00;4.00;;;;;19.51;58.35;101925.84;4913460;28;45264;-83
2022/05/27 11:58:25;;;;;;;;;3.00;3.00;;;;;19.57;58.07;101927.19;4914422;28;48336;-84
2022/05/27 12:01:01;;;;;;;;;3.75;3.75;;;;;19.61;57.88;101931.41;4914335;28;45597;-84
2022/05/27 12:04:00;;;;;;;;;7.00;6.00;;;;;19.67;57.90;101927.38;4933682;28;45480;-84
2022/05/27 12:06:53;;;;;;;;;6.00;4.00;;;;;19.69;57.49;101928.16;4920912;28;45641;-84
2022/05/27 12:09:29;;;;;;;;;3.25;3.25;;;;;19.76;57.57;101926.72;4919825;28;46056;-84
2022/05/27 12:12:30;;;;;;;;;7.25;7.00;;;;;19.78;57.11;101920.22;5005548;28;45451;-84
2022/05/27 12:15:01;;;;;;;;;5.75;5.00;;;;;19.82;57.53;101925.38;4952839;28;45599;-84
2022/05/27 12:17:43;;;;;;;;;6.00;5.75;;;;;19.83;57.50;101919.00;4950119;28;45616;-84
2022/05/27 12:20:14;;;;;;;;;4.00;4.00;;;;;19.84;56.82;101923.41;4952801;28;45450;-84
2022/05/27 12:22:40;;;;;;;;;7.75;5.25;;;;;19.85;56.85;101938.66;4957379;28;45603;-84